createdAt,value
2018-09-06T00:00:38.860Z,1012.85
2018-09-06T00:01:38.858Z,1012.83
2018-09-06T00:02:38.853Z,1012.85
2018-09-06T00:03:38.857Z,1012.86
2018-09-06T00:04:38.854Z,1012.85
2018-09-06T00:05:38.858Z,1012.88
2018-09-06T00:06:38.851Z,1012.87
2018-09-06T00:07:38.847Z,1012.88
2018-09-06T00:08:38.849Z,1012.88
2018-09-06T00:09:38.849Z,1012.86
2018-09-06T00:10:38.850Z,1012.82
2018-09-06T00:11:38.867Z,1012.89
2018-09-06T00:12:38.854Z,1012.84
2018-09-06T00:13:38.846Z,1012.85
2018-09-06T00:14:38.845Z,1012.85
2018-09-06T00:15:38.851Z,1012.81
2018-09-06T00:16:38.842Z,1012.84
2018-09-06T00:17:38.844Z,1012.81
2018-09-06T00:18:38.845Z,1012.82
2018-09-06T00:19:38.847Z,1012.80
2018-09-06T00:20:38.849Z,1012.78
2018-09-06T00:21:38.838Z,1012.82
2018-09-06T00:22:38.840Z,1012.78
2018-09-06T00:23:38.842Z,1012.75
2018-09-06T00:24:38.840Z,1012.77
2018-09-06T00:25:38.838Z,1012.78
2018-09-06T00:26:38.844Z,1012.78
2018-09-06T00:27:38.838Z,1012.78
2018-09-06T00:28:38.838Z,1012.77
2018-09-06T00:29:38.837Z,1012.74
2018-09-06T00:30:38.837Z,1012.77
2018-09-06T00:31:38.836Z,1012.76
2018-09-06T00:32:38.836Z,1012.78
2018-09-06T00:33:38.838Z,1012.80
2018-09-06T00:34:38.837Z,1012.76
2018-09-06T00:35:38.830Z,1012.76
2018-09-06T00:36:38.832Z,1012.75
2018-09-06T00:37:38.835Z,1012.77
2018-09-06T00:38:38.832Z,1012.71
2018-09-06T00:39:38.831Z,1012.75
2018-09-06T00:40:38.834Z,1012.74
2018-09-06T00:41:38.829Z,1012.71
2018-09-06T00:42:38.830Z,1012.75
2018-09-06T00:43:38.830Z,1012.73
2018-09-06T00:44:38.828Z,1012.73
2018-09-06T00:45:38.826Z,1012.73
2018-09-06T00:46:38.828Z,1012.74
2018-09-06T00:47:38.829Z,1012.75
2018-09-06T00:48:38.825Z,1012.73
2018-09-06T00:49:38.821Z,1012.74
2018-09-06T00:50:38.823Z,1012.73
2018-09-06T00:51:38.824Z,1012.74
2018-09-06T00:52:38.825Z,1012.69
2018-09-06T00:53:38.822Z,1012.73
2018-09-06T00:54:38.829Z,1012.72
2018-09-06T00:55:38.820Z,1012.67
2018-09-06T00:56:38.824Z,1012.70
2018-09-06T00:57:38.822Z,1012.69
2018-09-06T00:58:38.818Z,1012.68
2018-09-06T00:59:38.817Z,1012.66
2018-09-06T01:00:38.819Z,1012.68
2018-09-06T01:01:38.816Z,1012.70
2018-09-06T01:02:38.817Z,1012.63
2018-09-06T01:03:38.811Z,1012.68
2018-09-06T01:04:38.814Z,1012.66
2018-09-06T01:05:38.814Z,1012.64
2018-09-06T01:06:38.816Z,1012.64
2018-09-06T01:07:38.816Z,1012.61
2018-09-06T01:08:38.818Z,1012.62
2018-09-06T01:09:38.810Z,1012.60
2018-09-06T01:10:38.811Z,1012.63
2018-09-06T01:11:38.814Z,1012.61
2018-09-06T01:12:38.808Z,1012.55
2018-09-06T01:13:38.808Z,1012.58
2018-09-06T01:14:38.809Z,1012.58
2018-09-06T01:15:38.811Z,1012.55
2018-09-06T01:16:38.801Z,1012.54
2018-09-06T01:17:38.800Z,1012.53
2018-09-06T01:18:38.805Z,1012.54
2018-09-06T01:19:38.804Z,1012.52
2018-09-06T01:20:38.802Z,1012.51
2018-09-06T01:21:38.803Z,1012.50
2018-09-06T01:22:38.800Z,1012.48
2018-09-06T01:23:38.800Z,1012.50
2018-09-06T01:24:38.799Z,1012.47
2018-09-06T01:25:38.802Z,1012.46
2018-09-06T01:26:38.798Z,1012.45
2018-09-06T01:27:38.799Z,1012.47
2018-09-06T01:28:38.795Z,1012.44
2018-09-06T01:29:38.795Z,1012.46
2018-09-06T01:30:38.793Z,1012.44
2018-09-06T01:31:38.789Z,1012.42
2018-09-06T01:32:38.794Z,1012.46
2018-09-06T01:33:38.794Z,1012.45
2018-09-06T01:34:38.790Z,1012.44
2018-09-06T01:35:38.794Z,1012.42
2018-09-06T01:36:38.791Z,1012.46
2018-09-06T01:37:38.787Z,1012.46
2018-09-06T01:38:38.857Z,1012.45
2018-09-06T01:39:38.784Z,1012.42
2018-09-06T01:40:38.786Z,1012.44
2018-09-06T01:41:38.784Z,1012.43
2018-09-06T01:42:38.786Z,1012.43
2018-09-06T01:43:38.784Z,1012.44
2018-09-06T01:44:38.780Z,1012.39
2018-09-06T01:45:38.782Z,1012.43
2018-09-06T01:46:38.780Z,1012.45
2018-09-06T01:47:38.780Z,1012.44
2018-09-06T01:48:38.780Z,1012.49
2018-09-06T01:49:38.785Z,1012.45
2018-09-06T01:50:38.777Z,1012.41
2018-09-06T01:51:38.781Z,1012.44
2018-09-06T01:52:38.788Z,1012.45
2018-09-06T01:53:38.774Z,1012.44
2018-09-06T01:54:38.776Z,1012.43
2018-09-06T01:55:38.774Z,1012.40
2018-09-06T01:56:38.778Z,1012.40
2018-09-06T01:57:38.768Z,1012.44
2018-09-06T01:58:38.767Z,1012.47
2018-09-06T01:59:38.774Z,1012.41
2018-09-06T02:00:38.766Z,1012.44
2018-09-06T02:01:38.768Z,1012.47
2018-09-06T02:02:38.768Z,1012.43
2018-09-06T02:03:38.770Z,1012.43
2018-09-06T02:04:38.765Z,1012.41
2018-09-06T02:05:38.771Z,1012.40
2018-09-06T02:06:38.772Z,1012.41
2018-09-06T02:07:38.764Z,1012.43
2018-09-06T02:08:38.762Z,1012.39
2018-09-06T02:09:38.766Z,1012.43
2018-09-06T02:10:38.762Z,1012.43
2018-09-06T02:11:38.763Z,1012.44
2018-09-06T02:12:38.759Z,1012.42
2018-09-06T02:13:38.759Z,1012.41
2018-09-06T02:14:38.758Z,1012.38
2018-09-06T02:15:38.759Z,1012.42
2018-09-06T02:16:38.762Z,1012.39
2018-09-06T02:17:38.756Z,1012.39
2018-09-06T02:18:38.755Z,1012.37
2018-09-06T02:19:38.753Z,1012.34
2018-09-06T02:20:38.759Z,1012.33
2018-09-06T02:21:38.752Z,1012.30
2018-09-06T02:22:38.751Z,1012.31
2018-09-06T02:23:38.750Z,1012.29
2018-09-06T02:24:38.754Z,1012.29
2018-09-06T02:25:38.747Z,1012.29
2018-09-06T02:26:38.748Z,1012.31
2018-09-06T02:27:38.749Z,1012.26
2018-09-06T02:28:38.749Z,1012.28
2018-09-06T02:29:38.746Z,1012.27
2018-09-06T02:30:38.752Z,1012.24
2018-09-06T02:31:38.745Z,1012.23
2018-09-06T02:32:38.744Z,1012.22
2018-09-06T02:33:38.745Z,1012.25
2018-09-06T02:34:38.748Z,1012.23
2018-09-06T02:35:38.746Z,1012.21
2018-09-06T02:36:38.742Z,1012.21
2018-09-06T02:37:38.746Z,1012.17
2018-09-06T02:38:38.741Z,1012.17
2018-09-06T02:39:38.736Z,1012.18
2018-09-06T02:40:38.740Z,1012.18
2018-09-06T02:41:38.735Z,1012.18
2018-09-06T02:42:38.744Z,1012.20
2018-09-06T02:43:38.739Z,1012.18
2018-09-06T02:44:38.738Z,1012.17
2018-09-06T02:45:38.735Z,1012.15
2018-09-06T02:46:38.733Z,1012.11
2018-09-06T02:47:38.736Z,1012.13
2018-09-06T02:48:38.731Z,1012.16
2018-09-06T02:49:38.732Z,1012.11
2018-09-06T02:50:38.730Z,1012.11
2018-09-06T02:51:38.737Z,1012.11
2018-09-06T02:52:38.723Z,1012.10
2018-09-06T02:53:38.725Z,1012.09
2018-09-06T02:54:38.727Z,1012.07
2018-09-06T02:55:38.725Z,1012.06
2018-09-06T02:56:38.725Z,1012.06
2018-09-06T02:57:38.728Z,1012.07
2018-09-06T02:58:38.724Z,1012.06
2018-09-06T02:59:38.722Z,1011.99
2018-09-06T03:00:38.725Z,1012.02
2018-09-06T03:01:38.720Z,1012.01
2018-09-06T03:02:38.719Z,1012.03
2018-09-06T03:03:38.717Z,1012.02
2018-09-06T03:04:38.723Z,1011.97
2018-09-06T03:05:38.716Z,1011.98
2018-09-06T03:06:38.711Z,1011.96
2018-09-06T03:07:38.713Z,1011.95
2018-09-06T03:08:38.715Z,1011.96
2018-09-06T03:09:38.712Z,1011.94
2018-09-06T03:10:38.713Z,1011.93
2018-09-06T03:11:38.719Z,1011.95
2018-09-06T03:12:38.712Z,1011.94
2018-09-06T03:13:38.708Z,1011.90
2018-09-06T03:14:38.717Z,1011.89
2018-09-06T03:15:38.708Z,1011.89
2018-09-06T03:16:38.706Z,1011.90
2018-09-06T03:17:38.702Z,1011.88
2018-09-06T03:18:38.712Z,1011.87
2018-09-06T03:19:38.698Z,1011.88
2018-09-06T03:20:38.699Z,1011.84
2018-09-06T03:21:38.703Z,1011.83
2018-09-06T03:22:38.702Z,1011.87
2018-09-06T03:23:38.700Z,1011.82
2018-09-06T03:24:38.703Z,1011.81
2018-09-06T03:25:38.700Z,1011.80
2018-09-06T03:26:38.696Z,1011.83
2018-09-06T03:27:38.695Z,1011.84
2018-09-06T03:28:38.695Z,1011.85
2018-09-06T03:29:38.694Z,1011.86
2018-09-06T03:30:38.695Z,1011.83
2018-09-06T03:31:38.698Z,1011.85
2018-09-06T03:32:38.692Z,1011.88
2018-09-06T03:33:38.687Z,1011.89
2018-09-06T03:34:38.689Z,1011.87
2018-09-06T03:35:38.694Z,1011.85
2018-09-06T03:36:38.689Z,1011.86
2018-09-06T03:37:38.687Z,1011.86
2018-09-06T03:38:38.691Z,1011.85
2018-09-06T03:39:38.687Z,1011.82
2018-09-06T03:40:38.685Z,1011.81
2018-09-06T03:41:38.687Z,1011.83
2018-09-06T03:42:38.680Z,1011.81
2018-09-06T03:43:38.681Z,1011.81
2018-09-06T03:44:38.680Z,1011.84
2018-09-06T03:45:38.679Z,1011.78
2018-09-06T03:46:38.673Z,1011.84
2018-09-06T03:47:38.675Z,1011.85
2018-09-06T03:48:38.677Z,1011.85
2018-09-06T03:49:38.681Z,1011.82
2018-09-06T03:50:38.676Z,1011.79
2018-09-06T03:51:38.676Z,1011.79
2018-09-06T03:52:38.676Z,1011.79
2018-09-06T03:53:38.670Z,1011.80
2018-09-06T03:54:38.675Z,1011.79
2018-09-06T03:55:38.669Z,1011.77
2018-09-06T03:56:38.668Z,1011.79
2018-09-06T03:57:38.667Z,1011.78
2018-09-06T03:58:38.673Z,1011.78
2018-09-06T03:59:38.668Z,1011.78
2018-09-06T04:00:38.662Z,1011.77
2018-09-06T04:01:38.664Z,1011.80
2018-09-06T04:02:38.664Z,1011.81
2018-09-06T04:03:38.662Z,1011.77
2018-09-06T04:04:38.668Z,1011.79
2018-09-06T04:05:38.659Z,1011.82
2018-09-06T04:06:38.657Z,1011.75
2018-09-06T04:07:38.659Z,1011.78
2018-09-06T04:08:38.659Z,1011.79
2018-09-06T04:09:38.654Z,1011.79
2018-09-06T04:10:38.654Z,1011.82
2018-09-06T04:11:38.655Z,1011.82
2018-09-06T04:12:38.656Z,1011.77
2018-09-06T04:13:38.646Z,1011.82
2018-09-06T04:14:38.648Z,1011.81
2018-09-06T04:15:38.652Z,1011.84
2018-09-06T04:16:38.648Z,1011.81
2018-09-06T04:17:38.651Z,1011.78
2018-09-06T04:18:38.742Z,1011.79
2018-09-06T04:19:38.645Z,1011.78
2018-09-06T04:20:38.644Z,1011.79
2018-09-06T04:21:38.646Z,1011.74
2018-09-06T04:22:38.644Z,1011.71
2018-09-06T04:23:38.656Z,1011.71
2018-09-06T04:24:38.636Z,1011.70
2018-09-06T04:25:38.641Z,1011.69
2018-09-06T04:26:38.634Z,1011.68
2018-09-06T04:27:38.636Z,1011.69
2018-09-06T04:28:38.636Z,1011.69
2018-09-06T04:29:38.637Z,1011.68
2018-09-06T04:30:38.633Z,1011.67
2018-09-06T04:31:38.638Z,1011.68
2018-09-06T04:32:38.633Z,1011.65
2018-09-06T04:33:38.633Z,1011.71
2018-09-06T04:34:38.635Z,1011.72
2018-09-06T04:35:38.630Z,1011.75
2018-09-06T04:36:38.629Z,1011.75
2018-09-06T04:37:38.626Z,1011.75
2018-09-06T04:38:38.633Z,1011.78
2018-09-06T04:39:38.625Z,1011.74
2018-09-06T04:40:38.624Z,1011.72
2018-09-06T04:41:38.623Z,1011.73
2018-09-06T04:42:38.629Z,1011.74
2018-09-06T04:43:38.700Z,1011.74
2018-09-06T04:44:38.621Z,1011.71
2018-09-06T04:45:38.620Z,1011.72
2018-09-06T04:46:38.628Z,1011.73
2018-09-06T04:47:38.618Z,1011.74
2018-09-06T04:48:38.624Z,1011.77
2018-09-06T04:49:38.615Z,1011.76
2018-09-06T04:50:38.615Z,1011.76
2018-09-06T04:51:38.620Z,1011.79
2018-09-06T04:52:38.608Z,1011.76
2018-09-06T04:53:38.610Z,1011.75
2018-09-06T04:54:38.616Z,1011.77
2018-09-06T04:55:38.609Z,1011.72
2018-09-06T04:56:38.612Z,1011.74
2018-09-06T04:57:38.609Z,1011.72
2018-09-06T04:58:38.623Z,1011.74
2018-09-06T04:59:38.606Z,1011.70
2018-09-06T05:00:38.607Z,1011.71
2018-09-06T05:01:38.610Z,1011.73
2018-09-06T05:02:38.603Z,1011.71
2018-09-06T05:03:38.602Z,1011.69
2018-09-06T05:04:38.602Z,1011.71
2018-09-06T05:05:38.602Z,1011.74
2018-09-06T05:06:38.600Z,1011.73
2018-09-06T05:07:38.598Z,1011.74
2018-09-06T05:08:38.598Z,1011.78
2018-09-06T05:09:38.601Z,1011.74
2018-09-06T05:10:38.594Z,1011.79
2018-09-06T05:11:38.592Z,1011.76
2018-09-06T05:12:38.596Z,1011.78
2018-09-06T05:13:38.592Z,1011.78
2018-09-06T05:14:38.593Z,1011.77
2018-09-06T05:15:38.593Z,1011.80
2018-09-06T05:16:38.591Z,1011.80
2018-09-06T05:17:38.587Z,1011.83
2018-09-06T05:18:38.593Z,1011.84
2018-09-06T05:19:38.588Z,1011.81
2018-09-06T05:20:38.586Z,1011.86
2018-09-06T05:21:38.586Z,1011.88
2018-09-06T05:22:38.587Z,1011.93
2018-09-06T05:23:38.586Z,1011.91
2018-09-06T05:24:38.583Z,1011.91
2018-09-06T05:25:38.585Z,1011.92
2018-09-06T05:26:38.587Z,1011.84
2018-09-06T05:27:38.583Z,1011.87
2018-09-06T05:28:38.583Z,1011.84
2018-09-06T05:29:38.580Z,1011.86
2018-09-06T05:30:38.644Z,1011.84
2018-09-06T05:31:38.583Z,1011.84
2018-09-06T05:32:38.584Z,1011.84
2018-09-06T05:33:38.580Z,1011.84
2018-09-06T05:34:38.579Z,1011.84
2018-09-06T05:35:38.579Z,1011.82
2018-09-06T05:36:38.643Z,1011.84
2018-09-06T05:37:38.579Z,1011.82
2018-09-06T05:38:38.579Z,1011.80
2018-09-06T05:39:38.577Z,1011.84
2018-09-06T05:40:38.579Z,1011.83
2018-09-06T05:41:38.581Z,1011.83
2018-09-06T05:42:39.157Z,1011.83
2018-09-06T05:43:38.575Z,1011.88
2018-09-06T05:44:38.579Z,1011.90
2018-09-06T05:45:38.585Z,1011.91
2018-09-06T05:46:38.579Z,1011.90
2018-09-06T05:47:38.582Z,1011.89
2018-09-06T05:48:38.827Z,1011.88
2018-09-06T05:49:38.580Z,1011.86
2018-09-06T05:50:38.581Z,1011.86
2018-09-06T05:51:38.582Z,1011.83
2018-09-06T05:52:38.582Z,1011.84
2018-09-06T05:53:38.581Z,1011.81
2018-09-06T05:54:38.580Z,1011.80
2018-09-06T05:55:38.645Z,1011.76
2018-09-06T05:56:38.583Z,1011.78
2018-09-06T05:57:38.583Z,1011.76
2018-09-06T05:58:38.585Z,1011.79
2018-09-06T05:59:38.625Z,1011.77
2018-09-06T06:00:38.588Z,1011.75
2018-09-06T06:01:38.586Z,1011.75
2018-09-06T06:02:38.587Z,1011.80
2018-09-06T06:03:38.586Z,1011.75
2018-09-06T06:04:38.597Z,1011.76
2018-09-06T06:05:38.598Z,1011.76
2018-09-06T06:06:38.644Z,1011.74
2018-09-06T06:07:38.590Z,1011.73
2018-09-06T06:08:38.595Z,1011.76
2018-09-06T06:09:38.592Z,1011.73
2018-09-06T06:10:38.598Z,1011.76
2018-09-06T06:11:38.617Z,1011.75
2018-09-06T06:12:38.597Z,1011.71
2018-09-06T06:13:38.629Z,1011.75
2018-09-06T06:14:38.601Z,1011.75
2018-09-06T06:15:38.599Z,1011.71
2018-09-06T06:16:38.603Z,1011.67
2018-09-06T06:17:38.605Z,1011.64
2018-09-06T06:18:38.604Z,1011.67
2018-09-06T06:19:38.603Z,1011.63
2018-09-06T06:20:38.608Z,1011.61
2018-09-06T06:21:38.608Z,1011.63
2018-09-06T06:22:38.609Z,1011.63
2018-09-06T06:23:38.607Z,1011.66
2018-09-06T06:24:38.608Z,1011.66
2018-09-06T06:25:38.607Z,1011.66
2018-09-06T06:26:38.610Z,1011.67
2018-09-06T06:27:38.614Z,1011.62
2018-09-06T06:28:38.614Z,1011.64
2018-09-06T06:29:38.616Z,1011.65
2018-09-06T06:30:38.615Z,1011.61
2018-09-06T06:31:38.618Z,1011.63
2018-09-06T06:32:38.619Z,1011.63
2018-09-06T06:33:38.619Z,1011.64
2018-09-06T06:34:38.778Z,1011.63
2018-09-06T06:35:38.620Z,1011.60
2018-09-06T06:36:38.624Z,1011.64
2018-09-06T06:37:38.643Z,1011.60
2018-09-06T06:38:38.626Z,1011.57
2018-09-06T06:39:38.629Z,1011.59
2018-09-06T06:40:38.640Z,1011.58
2018-09-06T06:41:38.635Z,1011.61
2018-09-06T06:42:38.636Z,1011.59
2018-09-06T06:43:38.752Z,1011.62
2018-09-06T06:44:38.635Z,1011.62
2018-09-06T06:45:38.636Z,1011.63
2018-09-06T06:46:38.639Z,1011.59
2018-09-06T06:47:38.648Z,1011.62
2018-09-06T06:48:38.646Z,1011.61
2018-09-06T06:49:38.641Z,1011.58
2018-09-06T06:50:38.651Z,1011.63
2018-09-06T06:51:38.701Z,1011.60
2018-09-06T06:52:38.657Z,1011.58
2018-09-06T06:53:38.665Z,1011.60
2018-09-06T06:54:38.659Z,1011.57
2018-09-06T06:55:38.661Z,1011.60
2018-09-06T06:56:38.664Z,1011.60
2018-09-06T06:57:38.664Z,1011.62
2018-09-06T06:58:38.685Z,1011.60
2018-09-06T06:59:38.670Z,1011.61
2018-09-06T07:00:38.676Z,1011.62
2018-09-06T07:01:38.676Z,1011.64
2018-09-06T07:02:38.681Z,1011.64
2018-09-06T07:03:38.681Z,1011.56
2018-09-06T07:04:38.729Z,1011.58
2018-09-06T07:05:38.686Z,1011.61
2018-09-06T07:06:38.694Z,1011.63
2018-09-06T07:07:38.693Z,1011.61
2018-09-06T07:08:38.691Z,1011.62
2018-09-06T07:09:38.696Z,1011.59
2018-09-06T07:10:38.699Z,1011.66
2018-09-06T07:11:38.703Z,1011.63
2018-09-06T07:12:38.707Z,1011.63
2018-09-06T07:13:38.818Z,1011.65
2018-09-06T07:14:38.715Z,1011.58
2018-09-06T07:15:38.715Z,1011.59
2018-09-06T07:16:39.688Z,1011.63
2018-09-06T07:17:38.722Z,1011.61
2018-09-06T07:18:38.797Z,1011.66
2018-09-06T07:19:38.729Z,1011.60
2018-09-06T07:20:38.728Z,1011.58
2018-09-06T07:21:38.729Z,1011.59
2018-09-06T07:22:38.735Z,1011.62
2018-09-06T07:23:38.734Z,1011.58
2018-09-06T07:24:38.747Z,1011.54
2018-09-06T07:25:38.742Z,1011.54
2018-09-06T07:26:38.746Z,1011.57
2018-09-06T07:27:38.750Z,1011.51
2018-09-06T07:28:38.756Z,1011.53
2018-09-06T07:29:38.755Z,1011.50
2018-09-06T07:30:38.822Z,1011.52
2018-09-06T07:31:38.764Z,1011.54
2018-09-06T07:32:38.772Z,1011.50
2018-09-06T07:33:38.761Z,1011.50
2018-09-06T07:34:39.000Z,1011.52
2018-09-06T07:35:38.773Z,1011.47
2018-09-06T07:36:38.776Z,1011.48
2018-09-06T07:37:38.776Z,1011.49
2018-09-06T07:38:38.779Z,1011.41
2018-09-06T07:39:38.780Z,1011.45
2018-09-06T07:40:38.782Z,1011.47
2018-09-06T07:41:38.781Z,1011.46
2018-09-06T07:42:38.786Z,1011.46
2018-09-06T07:43:38.789Z,1011.47
2018-09-06T07:44:38.790Z,1011.46
2018-09-06T07:45:39.004Z,1011.40
2018-09-06T07:46:38.847Z,1011.46
2018-09-06T07:47:38.792Z,1011.48
2018-09-06T07:48:39.040Z,1011.46
2018-09-06T07:49:38.794Z,1011.47
2018-09-06T07:50:38.797Z,1011.47
2018-09-06T07:51:38.797Z,1011.45
2018-09-06T07:52:38.803Z,1011.43
2018-09-06T07:53:38.803Z,1011.49
2018-09-06T07:54:38.807Z,1011.47
2018-09-06T07:55:38.957Z,1011.45
2018-09-06T07:56:39.847Z,1011.46
2018-09-06T07:57:38.806Z,1011.44
2018-09-06T07:58:38.805Z,1011.42
2018-09-06T07:59:38.805Z,1011.41
2018-09-06T08:00:38.806Z,1011.44
2018-09-06T08:01:38.831Z,1011.41
2018-09-06T08:02:38.806Z,1011.44
2018-09-06T08:03:38.809Z,1011.44
2018-09-06T08:04:38.809Z,1011.43
2018-09-06T08:05:38.809Z,1011.42
2018-09-06T08:06:38.817Z,1011.44
2018-09-06T08:07:38.811Z,1011.40
2018-09-06T08:08:38.896Z,1011.37
2018-09-06T08:09:38.813Z,1011.37
2018-09-06T08:10:38.817Z,1011.35
2018-09-06T08:11:38.816Z,1011.39
2018-09-06T08:12:38.821Z,1011.36
2018-09-06T08:13:38.815Z,1011.37
2018-09-06T08:14:38.819Z,1011.37
2018-09-06T08:15:38.820Z,1011.38
2018-09-06T08:16:38.815Z,1011.37
2018-09-06T08:17:38.819Z,1011.35
2018-09-06T08:18:38.823Z,1011.37
2018-09-06T08:19:38.824Z,1011.35
2018-09-06T08:20:38.824Z,1011.36
2018-09-06T08:21:38.823Z,1011.37
2018-09-06T08:22:38.823Z,1011.38
2018-09-06T08:23:38.827Z,1011.37
2018-09-06T08:24:38.827Z,1011.37
2018-09-06T08:25:38.826Z,1011.35
2018-09-06T08:26:38.939Z,1011.35
2018-09-06T08:27:38.928Z,1011.35
2018-09-06T08:28:38.839Z,1011.34
2018-09-06T08:29:38.835Z,1011.35
2018-09-06T08:30:38.902Z,1011.39
2018-09-06T08:31:38.830Z,1011.33
2018-09-06T08:32:38.836Z,1011.31
2018-09-06T08:33:38.835Z,1011.35
2018-09-06T08:34:38.839Z,1011.33
2018-09-06T08:35:38.837Z,1011.30
2018-09-06T08:36:38.835Z,1011.28
2018-09-06T08:37:38.840Z,1011.32
2018-09-06T08:38:38.840Z,1011.30
2018-09-06T08:39:39.040Z,1011.33
2018-09-06T08:40:38.842Z,1011.32
2018-09-06T08:41:38.842Z,1011.29
2018-09-06T08:42:38.844Z,1011.29
2018-09-06T08:43:38.845Z,1011.30
2018-09-06T08:44:39.640Z,1011.25
2018-09-06T08:45:38.848Z,1011.22
2018-09-06T08:46:38.855Z,1011.21
2018-09-06T08:47:38.933Z,1011.25
2018-09-06T08:48:38.851Z,1011.25
2018-09-06T08:49:38.850Z,1011.19
2018-09-06T08:50:39.048Z,1011.18
2018-09-06T08:51:38.853Z,1011.21
2018-09-06T08:52:38.858Z,1011.19
2018-09-06T08:53:38.852Z,1011.16
2018-09-06T08:54:38.856Z,1011.16
2018-09-06T08:55:38.861Z,1011.18
2018-09-06T08:56:38.858Z,1011.20
2018-09-06T08:57:38.860Z,1011.19
2018-09-06T08:58:38.896Z,1011.17
2018-09-06T08:59:38.867Z,1011.12
2018-09-06T09:00:38.863Z,1011.15
2018-09-06T09:01:38.863Z,1011.14
2018-09-06T09:02:38.931Z,1011.13
2018-09-06T09:03:38.866Z,1011.13
2018-09-06T09:04:38.902Z,1011.09
2018-09-06T09:05:38.867Z,1011.10
2018-09-06T09:06:38.867Z,1011.11
2018-09-06T09:07:38.902Z,1011.12
2018-09-06T09:08:38.872Z,1011.08
2018-09-06T09:09:38.872Z,1011.07
2018-09-06T09:10:38.874Z,1011.11
2018-09-06T09:11:38.875Z,1011.09
2018-09-06T09:12:38.877Z,1011.04
2018-09-06T09:13:38.879Z,1011.08
2018-09-06T09:14:38.878Z,1011.05
2018-09-06T09:15:38.880Z,1011.04
2018-09-06T09:16:38.889Z,1011.05
2018-09-06T09:17:38.883Z,1011.07
2018-09-06T09:18:38.884Z,1011.02
2018-09-06T09:19:38.885Z,1010.99
2018-09-06T09:20:39.653Z,1010.98
2018-09-06T09:21:38.982Z,1010.98
2018-09-06T09:22:38.891Z,1010.96
2018-09-06T09:23:38.901Z,1010.93
2018-09-06T09:24:38.893Z,1010.93
2018-09-06T09:25:38.925Z,1010.92
2018-09-06T09:26:38.897Z,1010.90
2018-09-06T09:27:38.897Z,1010.90
2018-09-06T09:28:38.899Z,1010.85
2018-09-06T09:29:38.899Z,1010.89
2018-09-06T09:30:38.978Z,1010.91
2018-09-06T09:31:39.656Z,1010.82
2018-09-06T09:32:39.656Z,1010.81
2018-09-06T09:33:38.907Z,1010.82
2018-09-06T09:34:38.909Z,1010.78
2018-09-06T09:35:38.910Z,1010.75
2018-09-06T09:36:38.913Z,1010.80
2018-09-06T09:37:38.914Z,1010.77
2018-09-06T09:38:38.913Z,1010.75
2018-09-06T09:39:38.918Z,1010.74
2018-09-06T09:40:38.923Z,1010.73
2018-09-06T09:41:38.921Z,1010.79
2018-09-06T09:42:38.922Z,1010.76
2018-09-06T09:43:38.930Z,1010.71
2018-09-06T09:44:38.927Z,1010.78
2018-09-06T09:45:38.929Z,1010.73
2018-09-06T09:48:11.061Z,1010.72
2018-09-06T09:49:11.041Z,1010.73
2018-09-06T09:51:04.488Z,1010.73
2018-09-06T09:52:04.485Z,1010.73
2018-09-06T09:53:57.908Z,1010.70
2018-09-06T09:54:57.882Z,1010.70
2018-09-06T09:56:51.334Z,1010.69
2018-09-06T09:57:51.284Z,1010.61
2018-09-06T09:59:44.689Z,1010.59
2018-09-06T10:00:44.684Z,1010.59
2018-09-06T10:02:38.105Z,1010.59
2018-09-06T10:03:38.104Z,1010.59
2018-09-06T10:05:31.503Z,1010.57
2018-09-06T10:06:31.532Z,1010.55
2018-09-06T10:08:24.916Z,1010.51
2018-09-06T10:09:24.907Z,1010.53
2018-09-06T10:11:18.297Z,1010.51
2018-09-06T10:12:18.293Z,1010.49
2018-09-06T10:14:11.712Z,1010.49
2018-09-06T10:15:11.696Z,1010.45
2018-09-06T10:17:05.113Z,1010.42
2018-09-06T10:18:05.096Z,1010.51
2018-09-06T10:19:58.493Z,1010.39
2018-09-06T10:20:58.490Z,1010.38
2018-09-06T10:22:51.905Z,1010.33
2018-09-06T10:23:51.888Z,1010.35
2018-09-06T10:25:45.286Z,1010.31
2018-09-06T10:26:45.285Z,1010.31
2018-09-06T10:28:38.706Z,1010.29
2018-09-06T10:29:38.683Z,1010.27
2018-09-06T10:31:32.082Z,1010.25
2018-09-06T10:32:32.078Z,1010.20
2018-09-06T10:34:25.498Z,1010.21
2018-09-06T10:35:25.538Z,1010.21
2018-09-06T10:37:18.913Z,1010.19
2018-09-06T10:38:18.884Z,1010.19
2018-09-06T10:39:18.928Z,1010.21
2018-09-06T10:40:18.894Z,1010.22
2018-09-06T10:41:18.897Z,1010.18
2018-09-06T10:42:18.903Z,1010.25
2018-09-06T10:43:18.900Z,1010.25
2018-09-06T10:44:18.904Z,1010.22
2018-09-06T10:45:18.901Z,1010.22
2018-09-06T10:46:18.905Z,1010.17
2018-09-06T10:47:18.909Z,1010.19
2018-09-06T10:48:18.916Z,1010.13
2018-09-06T10:49:18.917Z,1010.11
2018-09-06T10:50:18.917Z,1010.15
2018-09-06T10:51:18.917Z,1010.12
2018-09-06T10:52:18.928Z,1010.09
2018-09-06T10:53:18.928Z,1010.08
2018-09-06T10:54:18.927Z,1010.12
2018-09-06T10:55:18.933Z,1010.10
2018-09-06T10:56:18.939Z,1010.07
2018-09-06T10:57:18.941Z,1010.06
2018-09-06T10:58:18.940Z,1010.04
2018-09-06T10:59:18.941Z,1010.04
2018-09-06T11:00:18.947Z,1010.02
2018-09-06T11:01:19.930Z,1010.01
2018-09-06T11:02:18.952Z,1009.98
2018-09-06T11:03:18.949Z,1009.95
2018-09-06T11:04:18.953Z,1009.96
2018-09-06T11:05:18.955Z,1009.93
2018-09-06T11:06:18.963Z,1009.94
2018-09-06T11:07:18.961Z,1009.92
2018-09-06T11:08:18.984Z,1009.89
2018-09-06T11:09:18.971Z,1009.97
2018-09-06T11:10:18.967Z,1009.94
2018-09-06T11:11:18.970Z,1009.89
2018-09-06T11:12:18.973Z,1009.91
2018-09-06T11:13:18.978Z,1009.89
2018-09-06T11:14:18.986Z,1009.88
2018-09-06T11:15:18.983Z,1009.84
2018-09-06T11:16:18.983Z,1009.86
2018-09-06T11:17:18.996Z,1009.87
2018-09-06T11:18:18.993Z,1009.85
2018-09-06T11:19:18.995Z,1009.83
2018-09-06T11:20:18.997Z,1009.80
2018-09-06T11:21:19.052Z,1009.81
2018-09-06T11:22:19.328Z,1009.83
2018-09-06T11:23:19.004Z,1009.81
2018-09-06T11:24:19.008Z,1009.82
2018-09-06T11:25:19.013Z,1009.81
2018-09-06T11:26:19.019Z,1009.82
2018-09-06T11:27:19.015Z,1009.84
2018-09-06T11:28:19.020Z,1009.82
2018-09-06T11:29:19.025Z,1009.80
2018-09-06T11:30:19.029Z,1009.78
2018-09-06T11:31:19.029Z,1009.81
2018-09-06T11:32:19.027Z,1009.82
2018-09-06T11:33:19.876Z,1009.81
2018-09-06T11:34:19.038Z,1009.79
2018-09-06T11:35:19.041Z,1009.77
2018-09-06T11:36:19.040Z,1009.79
2018-09-06T11:37:19.041Z,1009.78
2018-09-06T11:38:19.048Z,1009.80
2018-09-06T11:39:19.076Z,1009.76
2018-09-06T11:40:19.082Z,1009.81
2018-09-06T11:41:19.057Z,1009.77
2018-09-06T11:42:19.056Z,1009.74
2018-09-06T11:43:19.062Z,1009.73
2018-09-06T11:44:19.065Z,1009.74
2018-09-06T11:45:19.073Z,1009.73
2018-09-06T11:46:19.075Z,1009.67
2018-09-06T11:47:19.162Z,1009.67
2018-09-06T11:48:19.081Z,1009.68
2018-09-06T11:49:19.090Z,1009.64
2018-09-06T11:50:19.092Z,1009.62
2018-09-06T11:51:19.088Z,1009.59
2018-09-06T11:52:19.092Z,1009.51
2018-09-06T11:53:19.092Z,1009.47
2018-09-06T11:54:19.097Z,1009.54
2018-09-06T11:55:19.100Z,1009.48
2018-09-06T11:56:19.105Z,1009.43
2018-09-06T11:57:19.114Z,1009.43
2018-09-06T11:58:19.108Z,1009.45
2018-09-06T11:59:19.113Z,1009.44
2018-09-06T12:00:19.112Z,1009.43
2018-09-06T12:01:19.121Z,1009.47
2018-09-06T12:02:19.125Z,1009.42
2018-09-06T12:03:19.125Z,1009.43
2018-09-06T12:04:19.128Z,1009.37
2018-09-06T12:05:19.129Z,1009.43
2018-09-06T12:06:19.135Z,1009.38
2018-09-06T12:07:19.135Z,1009.39
2018-09-06T12:08:19.140Z,1009.39
2018-09-06T12:09:19.141Z,1009.34
2018-09-06T12:10:19.145Z,1009.33
2018-09-06T12:11:19.149Z,1009.32
2018-09-06T12:12:19.156Z,1009.34
2018-09-06T12:13:19.159Z,1009.33
2018-09-06T12:14:19.161Z,1009.31
2018-09-06T12:15:19.163Z,1009.29
2018-09-06T12:16:19.169Z,1009.25
2018-09-06T12:17:19.169Z,1009.29
2018-09-06T12:18:19.172Z,1009.27
2018-09-06T12:19:19.183Z,1009.29
2018-09-06T12:20:19.178Z,1009.26
2018-09-06T12:21:19.181Z,1009.23
2018-09-06T12:22:19.184Z,1009.30